Terminal Aerodrome Forecast
Issued by NWS

Home | Current Version | Previous Version | Text Only | Print | Product List | Glossary On
Versions: 1 2 3 4 5 6 7 8 9 10 11 12 13 14 15 16 17 18 19 20
000
FTUS45 KBOI 241738
TAFBKE
TAF
KBKE 241738Z 2418/2518 12008KT P6SM -SHRA SCT050 BKN070
     FM241900 21010KT P6SM -SHRA VCTS SCT040CB BKN080
     FM250000 33010KT P6SM VCSH BKN050 BKN080
     FM250700 VRB03KT P6SM -SHRA SCT025 OVC040=

USA.gov is the U.S. government's official web portal to all federal, state and local government web resources and services.